sensor_id;sensor_type;location;lat;lon;timestamp;temperature;humidity
7666;DHT22;3875;46.562;4.898;2022-10-16T00:02:01;18.20;89.40
7666;DHT22;3875;46.562;4.898;2022-10-16T00:04:27;18.50;88.80
7666;DHT22;3875;46.562;4.898;2022-10-16T00:06:52;18.50;88.70
7666;DHT22;3875;46.562;4.898;2022-10-16T00:09:18;18.40;88.90
7666;DHT22;3875;46.562;4.898;2022-10-16T00:11:44;18.30;89.20
7666;DHT22;3875;46.562;4.898;2022-10-16T00:14:13;18.30;89.30
7666;DHT22;3875;46.562;4.898;2022-10-16T00:16:40;18.30;89.30
7666;DHT22;3875;46.562;4.898;2022-10-16T00:19:05;18.20;89.20
7666;DHT22;3875;46.562;4.898;2022-10-16T00:21:32;18.20;89.30
7666;DHT22;3875;46.562;4.898;2022-10-16T00:24:00;18.20;89.40
7666;DHT22;3875;46.562;4.898;2022-10-16T00:26:29;18.10;89.60
7666;DHT22;3875;46.562;4.898;2022-10-16T00:28:54;18.10;89.70
7666;DHT22;3875;46.562;4.898;2022-10-16T00:31:21;18.10;89.60
7666;DHT22;3875;46.562;4.898;2022-10-16T00:33:47;18.10;89.50
7666;DHT22;3875;46.562;4.898;2022-10-16T00:36:15;18.10;89.50
7666;DHT22;3875;46.562;4.898;2022-10-16T00:38:42;18.10;89.50
7666;DHT22;3875;46.562;4.898;2022-10-16T00:41:12;18.20;89.40
7666;DHT22;3875;46.562;4.898;2022-10-16T00:43:45;18.20;89.20
7666;DHT22;3875;46.562;4.898;2022-10-16T00:46:21;18.20;89.10
7666;DHT22;3875;46.562;4.898;2022-10-16T00:49:12;18.20;89.10
7666;DHT22;3875;46.562;4.898;2022-10-16T00:51:49;18.20;89.00
7666;DHT22;3875;46.562;4.898;2022-10-16T00:54:19;18.20;89.00
7666;DHT22;3875;46.562;4.898;2022-10-16T00:56:46;18.20;88.90
7666;DHT22;3875;46.562;4.898;2022-10-16T00:59:19;18.20;88.90
7666;DHT22;3875;46.562;4.898;2022-10-16T01:01:45;18.20;88.80
7666;DHT22;3875;46.562;4.898;2022-10-16T01:04:11;18.20;88.80
7666;DHT22;3875;46.562;4.898;2022-10-16T01:12:15;18.30;88.60
7666;DHT22;3875;46.562;4.898;2022-10-16T01:14:58;18.30;88.60
7666;DHT22;3875;46.562;4.898;2022-10-16T01:17:29;18.30;88.60
7666;DHT22;3875;46.562;4.898;2022-10-16T01:22:47;18.30;88.60
7666;DHT22;3875;46.562;4.898;2022-10-16T01:25:25;18.30;88.50
7666;DHT22;3875;46.562;4.898;2022-10-16T01:27:55;18.30;88.60
7666;DHT22;3875;46.562;4.898;2022-10-16T01:30:29;18.30;88.60
7666;DHT22;3875;46.562;4.898;2022-10-16T01:33:01;18.30;88.50
7666;DHT22;3875;46.562;4.898;2022-10-16T01:35:36;18.30;88.40
7666;DHT22;3875;46.562;4.898;2022-10-16T01:38:25;18.30;88.50
7666;DHT22;3875;46.562;4.898;2022-10-16T01:41:00;18.30;88.50
7666;DHT22;3875;46.562;4.898;2022-10-16T01:43:53;18.30;88.50
7666;DHT22;3875;46.562;4.898;2022-10-16T01:46:23;18.20;88.60
7666;DHT22;3875;46.562;4.898;2022-10-16T01:48:49;18.20;88.80
7666;DHT22;3875;46.562;4.898;2022-10-16T01:51:17;18.20;88.80
7666;DHT22;3875;46.562;4.898;2022-10-16T01:53:52;18.20;88.90
7666;DHT22;3875;46.562;4.898;2022-10-16T01:56:19;18.20;88.90
7666;DHT22;3875;46.562;4.898;2022-10-16T01:58:55;18.10;89.00
7666;DHT22;3875;46.562;4.898;2022-10-16T02:01:25;18.20;88.90
7666;DHT22;3875;46.562;4.898;2022-10-16T02:03:54;18.20;88.90
7666;DHT22;3875;46.562;4.898;2022-10-16T02:06:22;18.20;88.90
7666;DHT22;3875;46.562;4.898;2022-10-16T02:08:49;18.10;89.10
7666;DHT22;3875;46.562;4.898;2022-10-16T02:11:14;18.10;89.00
7666;DHT22;3875;46.562;4.898;2022-10-16T02:13:58;18.10;89.10
7666;DHT22;3875;46.562;4.898;2022-10-16T02:19:01;18.10;89.10
7666;DHT22;3875;46.562;4.898;2022-10-16T02:21:30;18.10;89.10
7666;DHT22;3875;46.562;4.898;2022-10-16T02:24:11;18.10;89.10
7666;DHT22;3875;46.562;4.898;2022-10-16T02:26:45;18.10;89.10
7666;DHT22;3875;46.562;4.898;2022-10-16T02:29:16;18.10;89.10
7666;DHT22;3875;46.562;4.898;2022-10-16T02:31:46;18.10;89.20
7666;DHT22;3875;46.562;4.898;2022-10-16T02:34:15;18.00;89.30
7666;DHT22;3875;46.562;4.898;2022-10-16T02:36:42;18.00;89.30
7666;DHT22;3875;46.562;4.898;2022-10-16T02:39:08;18.00;89.40
7666;DHT22;3875;46.562;4.898;2022-10-16T02:41:35;18.00;89.50
7666;DHT22;3875;46.562;4.898;2022-10-16T02:44:00;17.90;89.50
7666;DHT22;3875;46.562;4.898;2022-10-16T02:46:26;17.90;89.60
7666;DHT22;3875;46.562;4.898;2022-10-16T02:48:52;17.90;89.60
7666;DHT22;3875;46.562;4.898;2022-10-16T02:51:17;17.90;89.60
7666;DHT22;3875;46.562;4.898;2022-10-16T02:53:43;17.90;89.60
7666;DHT22;3875;46.562;4.898;2022-10-16T02:56:08;17.90;89.70
7666;DHT22;3875;46.562;4.898;2022-10-16T02:58:34;17.80;89.80
7666;DHT22;3875;46.562;4.898;2022-10-16T03:01:00;17.80;89.90
7666;DHT22;3875;46.562;4.898;2022-10-16T03:03:25;17.70;90.00
7666;DHT22;3875;46.562;4.898;2022-10-16T03:05:51;17.70;90.10
7666;DHT22;3875;46.562;4.898;2022-10-16T03:08:17;17.70;90.30
7666;DHT22;3875;46.562;4.898;2022-10-16T03:10:42;17.70;90.40
7666;DHT22;3875;46.562;4.898;2022-10-16T03:13:08;17.70;90.40
7666;DHT22;3875;46.562;4.898;2022-10-16T03:15:34;17.60;90.50
7666;DHT22;3875;46.562;4.898;2022-10-16T03:17:59;17.70;90.60
7666;DHT22;3875;46.562;4.898;2022-10-16T03:20:25;17.70;90.50
7666;DHT22;3875;46.562;4.898;2022-10-16T03:22:51;17.70;90.50
7666;DHT22;3875;46.562;4.898;2022-10-16T03:25:17;17.70;90.30
7666;DHT22;3875;46.562;4.898;2022-10-16T03:27:43;17.70;90.30
7666;DHT22;3875;46.562;4.898;2022-10-16T03:30:09;17.70;90.30
7666;DHT22;3875;46.562;4.898;2022-10-16T03:32:35;17.70;90.20
7666;DHT22;3875;46.562;4.898;2022-10-16T03:35:00;17.70;90.20
7666;DHT22;3875;46.562;4.898;2022-10-16T03:37:26;17.70;90.30
7666;DHT22;3875;46.562;4.898;2022-10-16T03:39:52;17.70;90.20
7666;DHT22;3875;46.562;4.898;2022-10-16T03:42:18;17.70;90.20
7666;DHT22;3875;46.562;4.898;2022-10-16T03:44:44;17.70;90.10
7666;DHT22;3875;46.562;4.898;2022-10-16T03:47:09;17.80;90.10
7666;DHT22;3875;46.562;4.898;2022-10-16T03:49:35;17.80;90.00
7666;DHT22;3875;46.562;4.898;2022-10-16T03:52:00;17.80;90.00
7666;DHT22;3875;46.562;4.898;2022-10-16T03:54:26;17.80;89.90
7666;DHT22;3875;46.562;4.898;2022-10-16T03:56:52;17.80;89.90
7666;DHT22;3875;46.562;4.898;2022-10-16T03:59:17;17.80;89.80
7666;DHT22;3875;46.562;4.898;2022-10-16T04:01:43;17.90;89.80
7666;DHT22;3875;46.562;4.898;2022-10-16T04:04:09;17.90;89.70
7666;DHT22;3875;46.562;4.898;2022-10-16T04:06:34;17.90;89.70
7666;DHT22;3875;46.562;4.898;2022-10-16T04:09:00;17.90;89.70
7666;DHT22;3875;46.562;4.898;2022-10-16T04:11:26;17.80;89.70
7666;DHT22;3875;46.562;4.898;2022-10-16T04:13:51;17.80;89.70
7666;DHT22;3875;46.562;4.898;2022-10-16T04:16:17;17.80;89.80
7666;DHT22;3875;46.562;4.898;2022-10-16T04:18:43;17.80;89.80
7666;DHT22;3875;46.562;4.898;2022-10-16T04:21:08;17.80;89.80
7666;DHT22;3875;46.562;4.898;2022-10-16T04:23:34;17.80;89.80
7666;DHT22;3875;46.562;4.898;2022-10-16T04:26:00;17.70;89.80
7666;DHT22;3875;46.562;4.898;2022-10-16T04:28:26;17.70;89.80
7666;DHT22;3875;46.562;4.898;2022-10-16T04:30:52;17.70;89.90
7666;DHT22;3875;46.562;4.898;2022-10-16T04:33:18;17.70;90.10
7666;DHT22;3875;46.562;4.898;2022-10-16T04:35:44;17.60;90.20
7666;DHT22;3875;46.562;4.898;2022-10-16T04:38:09;17.60;90.20
7666;DHT22;3875;46.562;4.898;2022-10-16T04:40:35;17.60;90.20
7666;DHT22;3875;46.562;4.898;2022-10-16T04:43:03;17.50;90.30
7666;DHT22;3875;46.562;4.898;2022-10-16T04:45:29;17.50;90.30
7666;DHT22;3875;46.562;4.898;2022-10-16T04:47:59;17.50;90.30
7666;DHT22;3875;46.562;4.898;2022-10-16T04:50:25;17.60;90.30
7666;DHT22;3875;46.562;4.898;2022-10-16T04:52:50;17.50;90.20
7666;DHT22;3875;46.562;4.898;2022-10-16T04:55:16;17.50;90.20
7666;DHT22;3875;46.562;4.898;2022-10-16T04:57:42;17.50;90.20
7666;DHT22;3875;46.562;4.898;2022-10-16T05:00:08;17.50;90.20
7666;DHT22;3875;46.562;4.898;2022-10-16T05:02:34;17.50;90.20
7666;DHT22;3875;46.562;4.898;2022-10-16T05:05:00;17.50;90.20
7666;DHT22;3875;46.562;4.898;2022-10-16T05:07:25;17.50;90.20
7666;DHT22;3875;46.562;4.898;2022-10-16T05:09:51;17.50;90.10
7666;DHT22;3875;46.562;4.898;2022-10-16T05:12:17;17.50;90.00
7666;DHT22;3875;46.562;4.898;2022-10-16T05:14:43;17.50;90.00
7666;DHT22;3875;46.562;4.898;2022-10-16T05:17:08;17.50;89.90
7666;DHT22;3875;46.562;4.898;2022-10-16T05:19:34;17.50;89.90
7666;DHT22;3875;46.562;4.898;2022-10-16T05:22:00;17.50;89.90
7666;DHT22;3875;46.562;4.898;2022-10-16T05:24:26;17.50;89.80
7666;DHT22;3875;46.562;4.898;2022-10-16T05:26:52;17.50;89.70
7666;DHT22;3875;46.562;4.898;2022-10-16T05:29:18;17.50;89.70
7666;DHT22;3875;46.562;4.898;2022-10-16T05:31:43;17.50;89.60
7666;DHT22;3875;46.562;4.898;2022-10-16T05:34:09;17.50;89.50
7666;DHT22;3875;46.562;4.898;2022-10-16T05:36:35;17.50;89.60
7666;DHT22;3875;46.562;4.898;2022-10-16T05:39:00;17.50;89.50
7666;DHT22;3875;46.562;4.898;2022-10-16T05:41:26;17.50;89.40
7666;DHT22;3875;46.562;4.898;2022-10-16T05:43:52;17.40;89.40
7666;DHT22;3875;46.562;4.898;2022-10-16T05:46:18;17.40;89.50
7666;DHT22;3875;46.562;4.898;2022-10-16T05:48:44;17.40;89.50
7666;DHT22;3875;46.562;4.898;2022-10-16T05:51:12;17.40;89.60
7666;DHT22;3875;46.562;4.898;2022-10-16T05:53:39;17.40;89.60
7666;DHT22;3875;46.562;4.898;2022-10-16T05:56:06;17.40;89.60
7666;DHT22;3875;46.562;4.898;2022-10-16T05:58:34;17.40;89.50
7666;DHT22;3875;46.562;4.898;2022-10-16T06:01:03;17.40;89.50
7666;DHT22;3875;46.562;4.898;2022-10-16T06:03:29;17.40;89.40
7666;DHT22;3875;46.562;4.898;2022-10-16T06:05:55;17.40;89.40
7666;DHT22;3875;46.562;4.898;2022-10-16T06:08:22;17.40;89.40
7666;DHT22;3875;46.562;4.898;2022-10-16T06:10:49;17.40;89.40
7666;DHT22;3875;46.562;4.898;2022-10-16T06:13:25;17.40;89.50
7666;DHT22;3875;46.562;4.898;2022-10-16T06:15:51;17.40;89.50
7666;DHT22;3875;46.562;4.898;2022-10-16T06:18:16;17.40;89.40
7666;DHT22;3875;46.562;4.898;2022-10-16T06:20:42;17.40;89.40
7666;DHT22;3875;46.562;4.898;2022-10-16T06:23:07;17.30;89.50
7666;DHT22;3875;46.562;4.898;2022-10-16T06:25:33;17.30;89.70
7666;DHT22;3875;46.562;4.898;2022-10-16T06:27:59;17.30;89.80
7666;DHT22;3875;46.562;4.898;2022-10-16T06:30:24;17.30;89.90
7666;DHT22;3875;46.562;4.898;2022-10-16T06:32:50;17.30;90.00
7666;DHT22;3875;46.562;4.898;2022-10-16T06:35:16;17.30;90.00
7666;DHT22;3875;46.562;4.898;2022-10-16T06:37:41;17.40;90.00
7666;DHT22;3875;46.562;4.898;2022-10-16T06:40:07;17.40;89.90
7666;DHT22;3875;46.562;4.898;2022-10-16T06:42:33;17.40;89.90
7666;DHT22;3875;46.562;4.898;2022-10-16T06:44:58;17.50;90.00
7666;DHT22;3875;46.562;4.898;2022-10-16T06:47:24;17.50;89.90
7666;DHT22;3875;46.562;4.898;2022-10-16T06:49:50;17.50;89.90
7666;DHT22;3875;46.562;4.898;2022-10-16T06:52:16;17.50;89.90
7666;DHT22;3875;46.562;4.898;2022-10-16T06:54:41;17.50;89.80
7666;DHT22;3875;46.562;4.898;2022-10-16T06:57:07;17.50;89.80
7666;DHT22;3875;46.562;4.898;2022-10-16T06:59:32;17.50;89.80
7666;DHT22;3875;46.562;4.898;2022-10-16T07:01:58;17.70;90.00
7666;DHT22;3875;46.562;4.898;2022-10-16T07:04:24;17.80;89.50
7666;DHT22;3875;46.562;4.898;2022-10-16T07:06:49;17.90;89.40
7666;DHT22;3875;46.562;4.898;2022-10-16T07:09:17;18.10;89.10
7666;DHT22;3875;46.562;4.898;2022-10-16T07:11:43;18.10;88.70
7666;DHT22;3875;46.562;4.898;2022-10-16T07:14:16;18.00;88.70
7666;DHT22;3875;46.562;4.898;2022-10-16T07:16:42;17.90;88.90
7666;DHT22;3875;46.562;4.898;2022-10-16T07:19:08;17.80;89.20
7666;DHT22;3875;46.562;4.898;2022-10-16T07:21:34;17.80;89.40
7666;DHT22;3875;46.562;4.898;2022-10-16T07:24:06;17.90;89.60
7666;DHT22;3875;46.562;4.898;2022-10-16T07:26:34;18.00;89.30
7666;DHT22;3875;46.562;4.898;2022-10-16T07:29:00;18.20;89.00
7666;DHT22;3875;46.562;4.898;2022-10-16T07:31:27;18.20;88.80
7666;DHT22;3875;46.562;4.898;2022-10-16T07:33:53;18.30;88.50
7666;DHT22;3875;46.562;4.898;2022-10-16T07:36:20;18.30;88.50
7666;DHT22;3875;46.562;4.898;2022-10-16T07:38:46;18.40;88.80
7666;DHT22;3875;46.562;4.898;2022-10-16T07:41:14;18.40;88.60
7666;DHT22;3875;46.562;4.898;2022-10-16T07:43:44;18.40;88.50
7666;DHT22;3875;46.562;4.898;2022-10-16T07:46:10;18.40;88.70
7666;DHT22;3875;46.562;4.898;2022-10-16T07:48:36;18.40;88.90
7666;DHT22;3875;46.562;4.898;2022-10-16T07:51:04;18.40;89.00
7666;DHT22;3875;46.562;4.898;2022-10-16T07:53:30;18.60;89.20
7666;DHT22;3875;46.562;4.898;2022-10-16T07:56:04;18.80;88.90
7666;DHT22;3875;46.562;4.898;2022-10-16T07:58:32;19.00;88.30
7666;DHT22;3875;46.562;4.898;2022-10-16T08:00:58;19.10;88.30
7666;DHT22;3875;46.562;4.898;2022-10-16T08:03:25;19.30;88.00
7666;DHT22;3875;46.562;4.898;2022-10-16T08:05:51;19.30;87.70
7666;DHT22;3875;46.562;4.898;2022-10-16T08:08:18;19.50;87.50
7666;DHT22;3875;46.562;4.898;2022-10-16T08:10:44;19.60;87.20
7666;DHT22;3875;46.562;4.898;2022-10-16T08:13:10;19.70;86.80
7666;DHT22;3875;46.562;4.898;2022-10-16T08:15:36;19.70;86.80
7666;DHT22;3875;46.562;4.898;2022-10-16T08:18:03;19.60;86.90
7666;DHT22;3875;46.562;4.898;2022-10-16T08:20:30;19.60;87.00
7666;DHT22;3875;46.562;4.898;2022-10-16T08:22:56;19.70;87.00
7666;DHT22;3875;46.562;4.898;2022-10-16T08:25:23;19.80;87.00
7666;DHT22;3875;46.562;4.898;2022-10-16T08:27:48;20.00;86.70
7666;DHT22;3875;46.562;4.898;2022-10-16T08:30:15;20.10;86.00
7666;DHT22;3875;46.562;4.898;2022-10-16T08:32:41;20.10;85.80
7666;DHT22;3875;46.562;4.898;2022-10-16T08:35:08;19.90;85.90
7666;DHT22;3875;46.562;4.898;2022-10-16T08:37:34;19.90;86.40
7666;DHT22;3875;46.562;4.898;2022-10-16T08:40:00;19.80;86.30
7666;DHT22;3875;46.562;4.898;2022-10-16T08:45:09;19.60;86.50
7666;DHT22;3875;46.562;4.898;2022-10-16T08:50:40;19.80;86.90
7666;DHT22;3875;46.562;4.898;2022-10-16T08:53:06;20.10;86.30
7666;DHT22;3875;46.562;4.898;2022-10-16T08:55:49;20.30;85.40
7666;DHT22;3875;46.562;4.898;2022-10-16T08:58:26;20.50;85.60
7666;DHT22;3875;46.562;4.898;2022-10-16T09:00:58;20.80;85.20
7666;DHT22;3875;46.562;4.898;2022-10-16T09:06:22;21.20;83.50
7666;DHT22;3875;46.562;4.898;2022-10-16T09:08:58;21.20;83.50
7666;DHT22;3875;46.562;4.898;2022-10-16T09:17:49;21.60;82.70
7666;DHT22;3875;46.562;4.898;2022-10-16T09:25:31;21.60;82.40
7666;DHT22;3875;46.562;4.898;2022-10-16T09:27:58;21.70;81.90
7666;DHT22;3875;46.562;4.898;2022-10-16T09:30:27;21.70;82.20
7666;DHT22;3875;46.562;4.898;2022-10-16T09:32:55;21.60;82.20
7666;DHT22;3875;46.562;4.898;2022-10-16T09:35:31;21.40;82.60
7666;DHT22;3875;46.562;4.898;2022-10-16T09:37:57;21.20;83.20
7666;DHT22;3875;46.562;4.898;2022-10-16T09:40:26;21.30;83.60
7666;DHT22;3875;46.562;4.898;2022-10-16T09:43:20;21.50;83.60
7666;DHT22;3875;46.562;4.898;2022-10-16T09:45:43;21.80;83.20
7666;DHT22;3875;46.562;4.898;2022-10-16T09:48:19;22.30;82.30
7666;DHT22;3875;46.562;4.898;2022-10-16T09:50:59;22.70;81.50
7666;DHT22;3875;46.562;4.898;2022-10-16T09:53:37;23.10;80.80
7666;DHT22;3875;46.562;4.898;2022-10-16T09:56:03;23.40;80.20
7666;DHT22;3875;46.562;4.898;2022-10-16T09:58:31;23.50;78.40
7666;DHT22;3875;46.562;4.898;2022-10-16T10:00:59;23.70;78.70
7666;DHT22;3875;46.562;4.898;2022-10-16T10:03:40;23.90;78.50
7666;DHT22;3875;46.562;4.898;2022-10-16T10:06:28;24.20;77.50
7666;DHT22;3875;46.562;4.898;2022-10-16T10:08:56;24.30;77.00
7666;DHT22;3875;46.562;4.898;2022-10-16T10:14:19;24.40;77.00
7666;DHT22;3875;46.562;4.898;2022-10-16T10:16:46;24.60;76.00
7666;DHT22;3875;46.562;4.898;2022-10-16T10:19:20;24.80;74.10
7666;DHT22;3875;46.562;4.898;2022-10-16T10:21:46;24.80;74.50
7666;DHT22;3875;46.562;4.898;2022-10-16T10:24:14;24.90;74.10
7666;DHT22;3875;46.562;4.898;2022-10-16T10:26:57;24.90;73.60
7666;DHT22;3875;46.562;4.898;2022-10-16T10:32:16;25.00;74.50
7666;DHT22;3875;46.562;4.898;2022-10-16T10:37:36;25.40;72.80
7666;DHT22;3875;46.562;4.898;2022-10-16T10:40:06;25.40;73.30
7666;DHT22;3875;46.562;4.898;2022-10-16T10:48:03;25.70;72.50
7666;DHT22;3875;46.562;4.898;2022-10-16T10:50:52;25.70;72.40
7666;DHT22;3875;46.562;4.898;2022-10-16T10:53:49;25.90;73.10
7666;DHT22;3875;46.562;4.898;2022-10-16T11:07:09;26.20;70.40
7666;DHT22;3875;46.562;4.898;2022-10-16T11:09:49;26.20;71.30
7666;DHT22;3875;46.562;4.898;2022-10-16T11:12:20;26.30;70.80
7666;DHT22;3875;46.562;4.898;2022-10-16T11:15:11;26.40;71.40
7666;DHT22;3875;46.562;4.898;2022-10-16T11:18:04;26.60;70.90
7666;DHT22;3875;46.562;4.898;2022-10-16T11:20:45;27.10;69.10
7666;DHT22;3875;46.562;4.898;2022-10-16T11:26:13;26.80;69.30
7666;DHT22;3875;46.562;4.898;2022-10-16T11:28:51;26.80;69.60
7666;DHT22;3875;46.562;4.898;2022-10-16T11:37:10;26.50;69.50
7666;DHT22;3875;46.562;4.898;2022-10-16T11:39:38;26.60;69.80
7666;DHT22;3875;46.562;4.898;2022-10-16T11:42:11;26.70;69.70
7666;DHT22;3875;46.562;4.898;2022-10-16T11:47:36;26.80;69.80
7666;DHT22;3875;46.562;4.898;2022-10-16T11:50:28;26.80;69.20
7666;DHT22;3875;46.562;4.898;2022-10-16T11:55:37;26.60;69.50
7666;DHT22;3875;46.562;4.898;2022-10-16T11:58:30;26.50;69.40
7666;DHT22;3875;46.562;4.898;2022-10-16T12:06:18;26.80;68.50
7666;DHT22;3875;46.562;4.898;2022-10-16T12:08:49;26.60;68.10
7666;DHT22;3875;46.562;4.898;2022-10-16T12:11:33;26.50;68.40
7666;DHT22;3875;46.562;4.898;2022-10-16T12:16:59;26.60;68.80
7666;DHT22;3875;46.562;4.898;2022-10-16T12:19:27;26.60;68.80
7666;DHT22;3875;46.562;4.898;2022-10-16T12:21:59;26.70;68.70
7666;DHT22;3875;46.562;4.898;2022-10-16T12:24:38;26.80;68.60
7666;DHT22;3875;46.562;4.898;2022-10-16T12:29:55;26.70;67.40
7666;DHT22;3875;46.562;4.898;2022-10-16T12:35:01;26.80;68.10
7666;DHT22;3875;46.562;4.898;2022-10-16T12:37:33;26.80;67.80
7666;DHT22;3875;46.562;4.898;2022-10-16T12:40:04;26.70;67.70
7666;DHT22;3875;46.562;4.898;2022-10-16T12:42:37;26.70;68.20
7666;DHT22;3875;46.562;4.898;2022-10-16T12:45:29;26.80;68.50
7666;DHT22;3875;46.562;4.898;2022-10-16T12:47:58;26.90;68.70
7666;DHT22;3875;46.562;4.898;2022-10-16T12:50:35;27.00;68.30
7666;DHT22;3875;46.562;4.898;2022-10-16T12:53:03;27.00;68.00
7666;DHT22;3875;46.562;4.898;2022-10-16T12:55:40;27.00;68.00
7666;DHT22;3875;46.562;4.898;2022-10-16T13:11:48;26.90;68.20
7666;DHT22;3875;46.562;4.898;2022-10-16T13:18:09;26.80;68.30
7666;DHT22;3875;46.562;4.898;2022-10-16T13:20:34;26.70;67.90
7666;DHT22;3875;46.562;4.898;2022-10-16T13:28:32;26.60;68.80
7666;DHT22;3875;46.562;4.898;2022-10-16T13:31:00;26.60;68.80
7666;DHT22;3875;46.562;4.898;2022-10-16T13:33:33;26.50;68.50
7666;DHT22;3875;46.562;4.898;2022-10-16T13:36:00;26.50;68.50
7666;DHT22;3875;46.562;4.898;2022-10-16T13:38:31;26.50;68.70
7666;DHT22;3875;46.562;4.898;2022-10-16T13:41:02;26.50;69.10
7666;DHT22;3875;46.562;4.898;2022-10-16T13:43:42;26.50;69.30
7666;DHT22;3875;46.562;4.898;2022-10-16T13:48:43;26.30;69.70
7666;DHT22;3875;46.562;4.898;2022-10-16T13:51:13;26.20;69.80
7666;DHT22;3875;46.562;4.898;2022-10-16T13:53:39;26.20;70.10
7666;DHT22;3875;46.562;4.898;2022-10-16T13:56:10;26.20;69.80
7666;DHT22;3875;46.562;4.898;2022-10-16T13:58:36;26.10;69.60
7666;DHT22;3875;46.562;4.898;2022-10-16T14:01:04;26.10;70.20
7666;DHT22;3875;46.562;4.898;2022-10-16T14:03:34;26.00;69.80
7666;DHT22;3875;46.562;4.898;2022-10-16T14:06:03;25.90;70.20
7666;DHT22;3875;46.562;4.898;2022-10-16T14:08:30;25.90;69.90
7666;DHT22;3875;46.562;4.898;2022-10-16T14:10:57;26.00;70.20
7666;DHT22;3875;46.562;4.898;2022-10-16T14:13:44;26.10;70.30
7666;DHT22;3875;46.562;4.898;2022-10-16T14:16:19;26.00;69.40
7666;DHT22;3875;46.562;4.898;2022-10-16T14:19:04;25.90;70.00
7666;DHT22;3875;46.562;4.898;2022-10-16T14:21:32;25.80;69.90
7666;DHT22;3875;46.562;4.898;2022-10-16T14:23:59;26.00;69.30
7666;DHT22;3875;46.562;4.898;2022-10-16T14:26:28;25.80;69.50
7666;DHT22;3875;46.562;4.898;2022-10-16T14:29:11;25.60;70.10
7666;DHT22;3875;46.562;4.898;2022-10-16T14:31:38;25.50;70.30
7666;DHT22;3875;46.562;4.898;2022-10-16T14:34:26;25.30;70.90
7666;DHT22;3875;46.562;4.898;2022-10-16T14:36:54;25.30;70.90
7666;DHT22;3875;46.562;4.898;2022-10-16T14:39:22;25.20;71.20
7666;DHT22;3875;46.562;4.898;2022-10-16T14:41:50;25.20;71.20
7666;DHT22;3875;46.562;4.898;2022-10-16T14:44:33;25.20;71.40
7666;DHT22;3875;46.562;4.898;2022-10-16T14:47:08;25.20;71.20
7666;DHT22;3875;46.562;4.898;2022-10-16T14:49:34;25.20;71.50
7666;DHT22;3875;46.562;4.898;2022-10-16T14:52:01;25.20;71.60
7666;DHT22;3875;46.562;4.898;2022-10-16T14:54:27;25.20;71.30
7666;DHT22;3875;46.562;4.898;2022-10-16T14:56:55;25.30;71.50
7666;DHT22;3875;46.562;4.898;2022-10-16T14:59:35;25.20;71.60
7666;DHT22;3875;46.562;4.898;2022-10-16T15:04:48;25.00;71.60
7666;DHT22;3875;46.562;4.898;2022-10-16T15:07:14;24.90;72.10
7666;DHT22;3875;46.562;4.898;2022-10-16T15:09:39;24.90;71.90
7666;DHT22;3875;46.562;4.898;2022-10-16T15:12:05;24.90;72.20
7666;DHT22;3875;46.562;4.898;2022-10-16T15:14:31;24.80;72.20
7666;DHT22;3875;46.562;4.898;2022-10-16T15:16:57;24.80;72.40
7666;DHT22;3875;46.562;4.898;2022-10-16T15:19:22;24.70;73.00
7666;DHT22;3875;46.562;4.898;2022-10-16T15:21:48;24.60;73.30
7666;DHT22;3875;46.562;4.898;2022-10-16T15:24:15;24.50;73.30
7666;DHT22;3875;46.562;4.898;2022-10-16T15:26:41;24.40;73.20
7666;DHT22;3875;46.562;4.898;2022-10-16T15:29:07;24.30;73.40
7666;DHT22;3875;46.562;4.898;2022-10-16T15:31:33;24.20;73.40
7666;DHT22;3875;46.562;4.898;2022-10-16T15:33:59;24.20;73.50
7666;DHT22;3875;46.562;4.898;2022-10-16T15:36:32;24.10;73.60
7666;DHT22;3875;46.562;4.898;2022-10-16T15:39:08;24.00;73.80
7666;DHT22;3875;46.562;4.898;2022-10-16T15:41:37;24.00;74.00
7666;DHT22;3875;46.562;4.898;2022-10-16T15:44:03;23.90;74.00
7666;DHT22;3875;46.562;4.898;2022-10-16T15:46:29;23.90;74.10
7666;DHT22;3875;46.562;4.898;2022-10-16T15:48:57;23.80;74.40
7666;DHT22;3875;46.562;4.898;2022-10-16T15:51:24;23.80;74.40
7666;DHT22;3875;46.562;4.898;2022-10-16T15:53:50;23.80;74.50
7666;DHT22;3875;46.562;4.898;2022-10-16T15:56:16;23.80;74.60
7666;DHT22;3875;46.562;4.898;2022-10-16T15:58:43;23.80;74.60
7666;DHT22;3875;46.562;4.898;2022-10-16T16:01:09;23.70;74.40
7666;DHT22;3875;46.562;4.898;2022-10-16T16:03:36;23.70;74.60
7666;DHT22;3875;46.562;4.898;2022-10-16T16:06:07;23.60;74.80
7666;DHT22;3875;46.562;4.898;2022-10-16T16:08:34;23.60;74.90
7666;DHT22;3875;46.562;4.898;2022-10-16T16:11:09;23.50;75.00
7666;DHT22;3875;46.562;4.898;2022-10-16T16:13:36;23.50;75.00
7666;DHT22;3875;46.562;4.898;2022-10-16T16:16:13;23.50;75.00
7666;DHT22;3875;46.562;4.898;2022-10-16T16:18:39;23.40;75.20
7666;DHT22;3875;46.562;4.898;2022-10-16T16:21:06;23.40;75.20
7666;DHT22;3875;46.562;4.898;2022-10-16T16:23:32;23.40;75.30
7666;DHT22;3875;46.562;4.898;2022-10-16T16:26:24;23.30;75.30
7666;DHT22;3875;46.562;4.898;2022-10-16T16:28:54;23.30;75.40
7666;DHT22;3875;46.562;4.898;2022-10-16T16:31:24;23.20;75.60
7666;DHT22;3875;46.562;4.898;2022-10-16T16:33:50;23.10;75.70
7666;DHT22;3875;46.562;4.898;2022-10-16T16:36:17;23.10;75.80
7666;DHT22;3875;46.562;4.898;2022-10-16T16:38:43;23.10;75.90
7666;DHT22;3875;46.562;4.898;2022-10-16T16:41:14;23.10;75.90
7666;DHT22;3875;46.562;4.898;2022-10-16T16:43:40;23.00;76.10
7666;DHT22;3875;46.562;4.898;2022-10-16T16:46:06;23.00;76.20
7666;DHT22;3875;46.562;4.898;2022-10-16T16:48:32;22.90;76.30
7666;DHT22;3875;46.562;4.898;2022-10-16T16:51:09;22.90;76.40
7666;DHT22;3875;46.562;4.898;2022-10-16T16:53:41;22.80;76.50
7666;DHT22;3875;46.562;4.898;2022-10-16T16:56:07;22.80;76.70
7666;DHT22;3875;46.562;4.898;2022-10-16T16:58:33;22.70;76.70
7666;DHT22;3875;46.562;4.898;2022-10-16T17:00:59;22.70;76.80
7666;DHT22;3875;46.562;4.898;2022-10-16T17:03:32;22.60;76.90
7666;DHT22;3875;46.562;4.898;2022-10-16T17:06:07;22.60;76.90
7666;DHT22;3875;46.562;4.898;2022-10-16T17:08:36;22.50;76.90
7666;DHT22;3875;46.562;4.898;2022-10-16T17:11:03;22.50;76.90
7666;DHT22;3875;46.562;4.898;2022-10-16T17:13:31;22.50;76.90
7666;DHT22;3875;46.562;4.898;2022-10-16T17:15:57;22.50;76.90
7666;DHT22;3875;46.562;4.898;2022-10-16T17:18:23;22.40;77.00
7666;DHT22;3875;46.562;4.898;2022-10-16T17:20:50;22.40;76.90
7666;DHT22;3875;46.562;4.898;2022-10-16T17:23:19;22.40;77.00
7666;DHT22;3875;46.562;4.898;2022-10-16T17:25:52;22.40;77.00
7666;DHT22;3875;46.562;4.898;2022-10-16T17:28:18;22.30;77.10
7666;DHT22;3875;46.562;4.898;2022-10-16T17:30:44;22.30;77.00
7666;DHT22;3875;46.562;4.898;2022-10-16T17:33:11;22.20;77.10
7666;DHT22;3875;46.562;4.898;2022-10-16T17:35:46;22.20;77.10
7666;DHT22;3875;46.562;4.898;2022-10-16T17:38:13;22.20;77.10
7666;DHT22;3875;46.562;4.898;2022-10-16T17:40:41;22.10;77.20
7666;DHT22;3875;46.562;4.898;2022-10-16T17:43:07;22.10;77.40
7666;DHT22;3875;46.562;4.898;2022-10-16T17:45:36;22.00;77.50
7666;DHT22;3875;46.562;4.898;2022-10-16T17:48:02;22.10;77.40
7666;DHT22;3875;46.562;4.898;2022-10-16T17:50:27;22.00;77.40
7666;DHT22;3875;46.562;4.898;2022-10-16T17:52:53;22.00;77.50
7666;DHT22;3875;46.562;4.898;2022-10-16T17:55:18;22.00;77.40
7666;DHT22;3875;46.562;4.898;2022-10-16T17:57:44;22.00;77.50
7666;DHT22;3875;46.562;4.898;2022-10-16T18:00:11;21.90;77.60
7666;DHT22;3875;46.562;4.898;2022-10-16T18:02:37;21.90;77.60
7666;DHT22;3875;46.562;4.898;2022-10-16T18:05:09;21.90;77.60
7666;DHT22;3875;46.562;4.898;2022-10-16T18:07:36;21.80;77.60